BOV921 SLLP-SLCB
Flight info
| Callsign | BOV921 |
|---|---|
| Flight time | 0h 29m |
| Altitude | 27000 |
| Route | DAKOG UM793 CBA |
| Aircraft | B738/M-MDFGHILORVWY/S |
Departure
| Time | 2026-04-30 00:32 |
|---|---|
| Airport | El Alto International Airport (SLLP) |
Arrival
| Time | 2026-04-30 01:01 |
|---|---|
| Airport | Jorge Wilsterman International Airport (SLCB) |
| Time | Latitude | Longitude | Altitude | Speed | Heading |
|---|---|---|---|---|---|
| 2026-04-29 23:57 | -16.50944 | -68.17765 | 13335 ft | 0 kts | 37° |
| 2026-04-30 00:22 | -16.50949 | -68.17769 | 13335 ft | 4 kts | 37° |
| 2026-04-30 00:22 | -16.50971 | -68.17785 | 13335 ft | 4 kts | 41° |
| 2026-04-30 00:22 | -16.50990 | -68.17815 | 13335 ft | 4 kts | 77° |
| 2026-04-30 00:23 | -16.50992 | -68.17832 | 13334 ft | 2 kts | 91° |
| 2026-04-30 00:23 | -16.50992 | -68.17834 | 13334 ft | 1 kts | 92° |
| 2026-04-30 00:27 | -16.50993 | -68.17813 | 13335 ft | 4 kts | 93° |
| 2026-04-30 00:28 | -16.50995 | -68.17784 | 13335 ft | 4 kts | 94° |
| 2026-04-30 00:28 | -16.50998 | -68.17756 | 13335 ft | 4 kts | 104° |
| 2026-04-30 00:28 | -16.51012 | -68.17725 | 13334 ft | 6 kts | 118° |
| 2026-04-30 00:28 | -16.51039 | -68.17674 | 13335 ft | 10 kts | 119° |
| 2026-04-30 00:29 | -16.51084 | -68.17605 | 13333 ft | 13 kts | 129° |
| 2026-04-30 00:29 | -16.51141 | -68.17536 | 13331 ft | 12 kts | 131° |
| 2026-04-30 00:29 | -16.51196 | -68.17469 | 13330 ft | 12 kts | 131° |
| 2026-04-30 00:29 | -16.51250 | -68.17403 | 13327 ft | 12 kts | 131° |
| 2026-04-30 00:30 | -16.51328 | -68.17359 | 13326 ft | 13 kts | 171° |
| 2026-04-30 00:30 | -16.51393 | -68.17399 | 13326 ft | 13 kts | 266° |
| 2026-04-30 00:30 | -16.51391 | -68.17433 | 13324 ft | 0 kts | 273° |
| 2026-04-30 00:31 | -16.51388 | -68.17498 | 13323 ft | 35 kts | 272° |
| 2026-04-30 00:31 | -16.51373 | -68.17995 | 13316 ft | 101 kts | 272° |
| 2026-04-30 00:32 | -16.51342 | -68.18925 | 13286 ft | 157 kts | 272° |
| 2026-04-30 00:32 | -16.51303 | -68.20262 | 13216 ft | 208 kts | 272° |
| 2026-04-30 00:32 | -16.51248 | -68.21822 | 13695 ft | 219 kts | 271° |
| 2026-04-30 00:32 | -16.51191 | -68.23426 | 14544 ft | 222 kts | 274° |
| 2026-04-30 00:33 | -16.51098 | -68.25009 | 15256 ft | 218 kts | 273° |
| 2026-04-30 00:33 | -16.50990 | -68.26585 | 15883 ft | 221 kts | 272° |
| 2026-04-30 00:33 | -16.50944 | -68.28251 | 16042 ft | 244 kts | 270° |
| 2026-04-30 00:33 | -16.50937 | -68.30116 | 16186 ft | 265 kts | 265° |
| 2026-04-30 00:34 | -16.51498 | -68.32001 | 16283 ft | 285 kts | 236° |
| 2026-04-30 00:34 | -16.52955 | -68.33487 | 16385 ft | 309 kts | 209° |
| 2026-04-30 00:34 | -16.55026 | -68.34159 | 16641 ft | 327 kts | 183° |
| 2026-04-30 00:34 | -16.57287 | -68.33819 | 17229 ft | 334 kts | 158° |
| 2026-04-30 00:35 | -16.59200 | -68.32457 | 17955 ft | 338 kts | 132° |
| 2026-04-30 00:35 | -16.60485 | -68.30382 | 18717 ft | 343 kts | 117° |
| 2026-04-30 00:35 | -16.61450 | -68.28098 | 19330 ft | 348 kts | 113° |
| 2026-04-30 00:35 | -16.62357 | -68.25724 | 19906 ft | 354 kts | 112° |
| 2026-04-30 00:36 | -16.63284 | -68.23333 | 20526 ft | 357 kts | 113° |
| 2026-04-30 00:36 | -16.64252 | -68.20940 | 21136 ft | 361 kts | 114° |
| 2026-04-30 00:36 | -16.65265 | -68.18526 | 21729 ft | 365 kts | 114° |
| 2026-04-30 00:36 | -16.66303 | -68.16103 | 22308 ft | 368 kts | 115° |
| 2026-04-30 00:37 | -16.67407 | -68.13674 | 22859 ft | 372 kts | 117° |
| 2026-04-30 00:37 | -16.68599 | -68.11265 | 23407 ft | 376 kts | 118° |
| 2026-04-30 00:37 | -16.69833 | -68.08842 | 23939 ft | 380 kts | 118° |
| 2026-04-30 00:37 | -16.71090 | -68.06391 | 24365 ft | 385 kts | 118° |
| 2026-04-30 00:38 | -16.72354 | -68.03919 | 24784 ft | 389 kts | 118° |
| 2026-04-30 00:38 | -16.73626 | -68.01412 | 25197 ft | 393 kts | 117° |
| 2026-04-30 00:38 | -16.74904 | -67.98876 | 25628 ft | 397 kts | 117° |
| 2026-04-30 00:38 | -16.76189 | -67.96318 | 26059 ft | 400 kts | 117° |
| 2026-04-30 00:39 | -16.77487 | -67.93733 | 26467 ft | 404 kts | 117° |
| 2026-04-30 00:39 | -16.78791 | -67.91133 | 26905 ft | 409 kts | 116° |
| 2026-04-30 00:39 | -16.80118 | -67.88480 | 27110 ft | 413 kts | 116° |
| 2026-04-30 00:39 | -16.81439 | -67.85843 | 27099 ft | 407 kts | 116° |
| 2026-04-30 00:40 | -16.82738 | -67.83242 | 27115 ft | 403 kts | 116° |
| 2026-04-30 00:40 | -16.84023 | -67.80663 | 27117 ft | 399 kts | 116° |
| 2026-04-30 00:40 | -16.85305 | -67.78088 | 27134 ft | 399 kts | 116° |
| 2026-04-30 00:40 | -16.86588 | -67.75512 | 27142 ft | 400 kts | 116° |
| 2026-04-30 00:41 | -16.87876 | -67.72929 | 27139 ft | 401 kts | 116° |
| 2026-04-30 00:41 | -16.89162 | -67.70349 | 27144 ft | 401 kts | 116° |
| 2026-04-30 00:41 | -16.90445 | -67.67774 | 27149 ft | 401 kts | 116° |
| 2026-04-30 00:41 | -16.91720 | -67.65215 | 27155 ft | 401 kts | 116° |
| 2026-04-30 00:42 | -16.93025 | -67.62595 | 27149 ft | 402 kts | 116° |
| 2026-04-30 00:42 | -16.94343 | -67.60028 | 27147 ft | 402 kts | 118° |
| 2026-04-30 00:42 | -16.95758 | -67.57558 | 27156 ft | 401 kts | 121° |
| 2026-04-30 00:42 | -16.97243 | -67.55088 | 27164 ft | 401 kts | 121° |
| 2026-04-30 00:43 | -16.98740 | -67.52630 | 27160 ft | 402 kts | 121° |
| 2026-04-30 00:43 | -17.00235 | -67.50168 | 27167 ft | 402 kts | 121° |
| 2026-04-30 00:43 | -17.01725 | -67.47696 | 27166 ft | 402 kts | 121° |
| 2026-04-30 00:43 | -17.03206 | -67.45224 | 27165 ft | 402 kts | 121° |
| 2026-04-30 00:44 | -17.04685 | -67.42739 | 27174 ft | 401 kts | 121° |
| 2026-04-30 00:44 | -17.06155 | -67.40263 | 27178 ft | 401 kts | 121° |
| 2026-04-30 00:44 | -17.07625 | -67.37782 | 27180 ft | 401 kts | 121° |
| 2026-04-30 00:44 | -17.09091 | -67.35303 | 27189 ft | 401 kts | 121° |
| 2026-04-30 00:45 | -17.10553 | -67.32831 | 27196 ft | 401 kts | 120° |
| 2026-04-30 00:45 | -17.12019 | -67.30350 | 27192 ft | 401 kts | 120° |
| 2026-04-30 00:45 | -17.13484 | -67.27871 | 27195 ft | 401 kts | 120° |
| 2026-04-30 00:45 | -17.14953 | -67.25384 | 27200 ft | 401 kts | 120° |
| 2026-04-30 00:46 | -17.16416 | -67.22906 | 27195 ft | 401 kts | 120° |
| 2026-04-30 00:46 | -17.17881 | -67.20425 | 27196 ft | 401 kts | 120° |
| 2026-04-30 00:46 | -17.19342 | -67.17948 | 27206 ft | 401 kts | 120° |
| 2026-04-30 00:46 | -17.20804 | -67.15469 | 27198 ft | 399 kts | 120° |
| 2026-04-30 00:47 | -17.22259 | -67.13002 | 27214 ft | 399 kts | 120° |
| 2026-04-30 00:47 | -17.23714 | -67.10533 | 27206 ft | 399 kts | 120° |
| 2026-04-30 00:47 | -17.25170 | -67.08062 | 26997 ft | 400 kts | 120° |
| 2026-04-30 00:47 | -17.26627 | -67.05588 | 26722 ft | 395 kts | 121° |
| 2026-04-30 00:48 | -17.28066 | -67.03144 | 26347 ft | 394 kts | 121° |
| 2026-04-30 00:48 | -17.29476 | -67.00748 | 26003 ft | 391 kts | 121° |
| 2026-04-30 00:48 | -17.30896 | -66.98335 | 25643 ft | 388 kts | 121° |
| 2026-04-30 00:48 | -17.32309 | -66.95932 | 25278 ft | 386 kts | 121° |
| 2026-04-30 00:49 | -17.33713 | -66.93544 | 24899 ft | 385 kts | 121° |
| 2026-04-30 00:49 | -17.35113 | -66.91161 | 24506 ft | 384 kts | 121° |
| 2026-04-30 00:49 | -17.36508 | -66.88787 | 24136 ft | 382 kts | 122° |
| 2026-04-30 00:49 | -17.37900 | -66.86417 | 23754 ft | 381 kts | 122° |
| 2026-04-30 00:50 | -17.39281 | -66.84064 | 23336 ft | 378 kts | 122° |
| 2026-04-30 00:50 | -17.40657 | -66.81719 | 22936 ft | 376 kts | 122° |
| 2026-04-30 00:50 | -17.42019 | -66.79399 | 22556 ft | 373 kts | 122° |
| 2026-04-30 00:50 | -17.43374 | -66.77088 | 22180 ft | 370 kts | 122° |
| 2026-04-30 00:51 | -17.44717 | -66.74797 | 21810 ft | 368 kts | 122° |
| 2026-04-30 00:51 | -17.46048 | -66.72526 | 21449 ft | 365 kts | 122° |
| 2026-04-30 00:51 | -17.47370 | -66.70270 | 21093 ft | 362 kts | 122° |
| 2026-04-30 00:51 | -17.48685 | -66.68025 | 20738 ft | 360 kts | 122° |
| 2026-04-30 00:52 | -17.49987 | -66.65801 | 20369 ft | 358 kts | 122° |
| 2026-04-30 00:52 | -17.51281 | -66.63590 | 20012 ft | 355 kts | 122° |
| 2026-04-30 00:52 | -17.52574 | -66.61380 | 19645 ft | 353 kts | 122° |
| 2026-04-30 00:52 | -17.53861 | -66.59179 | 19193 ft | 354 kts | 122° |
| 2026-04-30 00:53 | -17.54982 | -66.57261 | 18884 ft | 353 kts | 122° |
| 2026-04-30 00:53 | -17.56261 | -66.55073 | 18528 ft | 351 kts | 122° |
| 2026-04-30 00:53 | -17.57533 | -66.52896 | 18135 ft | 350 kts | 122° |
| 2026-04-30 00:53 | -17.58800 | -66.50728 | 17778 ft | 346 kts | 122° |
| 2026-04-30 00:54 | -17.59827 | -66.48459 | 17272 ft | 348 kts | 104° |
| 2026-04-30 00:54 | -17.59988 | -66.45990 | 16880 ft | 346 kts | 83° |
| 2026-04-30 00:54 | -17.59301 | -66.43592 | 16440 ft | 344 kts | 62° |
| 2026-04-30 00:54 | -17.58033 | -66.41509 | 16035 ft | 335 kts | 55° |
| 2026-04-30 00:55 | -17.56684 | -66.39543 | 15608 ft | 328 kts | 54° |
| 2026-04-30 00:55 | -17.55361 | -66.37639 | 15207 ft | 320 kts | 54° |
| 2026-04-30 00:55 | -17.52856 | -66.33948 | 14774 ft | 294 kts | 55° |
| 2026-04-30 00:56 | -17.51704 | -66.32227 | 14502 ft | 283 kts | 55° |
| 2026-04-30 00:56 | -17.50596 | -66.30584 | 14177 ft | 272 kts | 52° |
| 2026-04-30 00:56 | -17.49138 | -66.29377 | 13793 ft | 263 kts | 21° |
| 2026-04-30 00:56 | -17.47386 | -66.29095 | 13452 ft | 252 kts | 355° |
| 2026-04-30 00:57 | -17.45715 | -66.29487 | 13096 ft | 242 kts | 341° |
| 2026-04-30 00:57 | -17.44140 | -66.30024 | 12738 ft | 234 kts | 346° |
| 2026-04-30 00:57 | -17.42557 | -66.30262 | 12480 ft | 228 kts | 356° |
| 2026-04-30 00:57 | -17.40990 | -66.30200 | 12146 ft | 223 kts | 5° |
| 2026-04-30 00:58 | -17.39479 | -66.29904 | 11608 ft | 221 kts | 13° |
| 2026-04-30 00:58 | -17.38032 | -66.29418 | 11167 ft | 216 kts | 21° |
| 2026-04-30 00:58 | -17.36678 | -66.28769 | 10773 ft | 212 kts | 27° |
| 2026-04-30 00:58 | -17.35456 | -66.27926 | 10368 ft | 209 kts | 45° |
| 2026-04-30 00:59 | -17.34811 | -66.26648 | 10146 ft | 191 kts | 82° |
| 2026-04-30 00:59 | -17.35130 | -66.25426 | 10041 ft | 180 kts | 131° |
| 2026-04-30 00:59 | -17.36060 | -66.24476 | 10239 ft | 195 kts | 134° |
| 2026-04-30 00:59 | -17.37003 | -66.23464 | 9756 ft | 190 kts | 134° |
| 2026-04-30 01:00 | -17.37920 | -66.22495 | 9414 ft | 179 kts | 137° |
| 2026-04-30 01:00 | -17.38765 | -66.21593 | 9110 ft | 170 kts | 131° |
| 2026-04-30 01:00 | -17.39548 | -66.20666 | 8810 ft | 171 kts | 132° |
| 2026-04-30 01:00 | -17.40341 | -66.19758 | 8554 ft | 165 kts | 132° |
| 2026-04-30 01:01 | -17.41088 | -66.18891 | 8365 ft | 157 kts | 132° |
| 2026-04-30 01:01 | -17.41746 | -66.18135 | 8360 ft | 119 kts | 133° |
| 2026-04-30 01:01 | -17.42203 | -66.17605 | 8362 ft | 77 kts | 131° |
| 2026-04-30 01:01 | -17.42487 | -66.17274 | 8360 ft | 36 kts | 131° |
| 2026-04-30 01:02 | -17.42606 | -66.17137 | 8359 ft | 6 kts | 133° |
| 2026-04-30 01:02 | -17.42626 | -66.17076 | 8359 ft | 18 kts | 80° |
| 2026-04-30 01:02 | -17.42552 | -66.16991 | 8360 ft | 13 kts | 28° |
| 2026-04-30 01:02 | -17.42477 | -66.17023 | 8360 ft | 13 kts | 311° |
| 2026-04-30 01:03 | -17.42420 | -66.17093 | 8360 ft | 13 kts | 309° |
| 2026-04-30 01:03 | -17.42362 | -66.17160 | 8360 ft | 12 kts | 312° |
| 2026-04-30 01:03 | -17.42306 | -66.17225 | 8360 ft | 12 kts | 312° |
| 2026-04-30 01:03 | -17.42251 | -66.17288 | 8360 ft | 12 kts | 315° |
| 2026-04-30 01:04 | -17.42197 | -66.17349 | 8360 ft | 11 kts | 311° |
| 2026-04-30 01:04 | -17.42147 | -66.17410 | 8361 ft | 11 kts | 312° |
| 2026-04-30 01:04 | -17.42095 | -66.17469 | 8361 ft | 11 kts | 311° |
| 2026-04-30 01:04 | -17.42039 | -66.17535 | 8361 ft | 13 kts | 310° |
| 2026-04-30 01:05 | -17.41977 | -66.17606 | 8361 ft | 14 kts | 312° |
| 2026-04-30 01:05 | -17.41910 | -66.17683 | 8361 ft | 15 kts | 311° |
| 2026-04-30 01:05 | -17.41838 | -66.17768 | 8360 ft | 16 kts | 311° |
| 2026-04-30 01:05 | -17.41760 | -66.17859 | 8360 ft | 17 kts | 313° |
| 2026-04-30 01:06 | -17.41716 | -66.17908 | 8360 ft | 12 kts | 315° |
| 2026-04-30 01:06 | -17.41642 | -66.17920 | 8360 ft | 11 kts | 20° |
| 2026-04-30 01:06 | -17.41582 | -66.17927 | 8360 ft | 7 kts | 352° |
| 2026-04-30 01:06 | -17.41540 | -66.17898 | 8361 ft | 7 kts | 43° |
| 2026-04-30 01:07 | -17.41531 | -66.17888 | 8361 ft | 0 kts | 44° |
| 2026-04-30 01:34 | -17.41546 | -66.17903 | 8361 ft | 4 kts | 41° |
| 2026-04-30 01:35 | -17.41568 | -66.17920 | 8361 ft | 4 kts | 26° |
| 2026-04-30 01:35 | -17.41590 | -66.17926 | 8361 ft | 4 kts | 332° |
| 2026-04-30 01:35 | -17.41596 | -66.17922 | 8361 ft | 1 kts | 311° |
| 2026-04-30 01:40 | -17.41586 | -66.17933 | 8361 ft | 6 kts | 312° |
| 2026-04-30 01:40 | -17.41553 | -66.17969 | 8360 ft | 7 kts | 313° |
| 2026-04-30 01:40 | -17.41519 | -66.18007 | 8360 ft | 7 kts | 313° |
| 2026-04-30 01:41 | -17.41488 | -66.18044 | 8361 ft | 7 kts | 313° |
| 2026-04-30 01:41 | -17.41490 | -66.18087 | 8360 ft | 7 kts | 230° |
| 2026-04-30 01:41 | -17.41527 | -66.18125 | 8361 ft | 8 kts | 221° |
| 2026-04-30 01:41 | -17.41574 | -66.18171 | 8360 ft | 10 kts | 222° |
| 2026-04-30 01:42 | -17.41622 | -66.18232 | 8361 ft | 11 kts | 252° |
| 2026-04-30 01:42 | -17.41582 | -66.18326 | 8363 ft | 17 kts | 311° |
| 2026-04-30 01:42 | -17.41505 | -66.18414 | 8363 ft | 16 kts | 312° |
| 2026-04-30 01:42 | -17.41431 | -66.18500 | 8364 ft | 15 kts | 308° |
| 2026-04-30 01:43 | -17.41361 | -66.18581 | 8364 ft | 15 kts | 314° |
| 2026-04-30 01:43 | -17.41293 | -66.18660 | 8364 ft | 14 kts | 311° |
| 2026-04-30 01:43 | -17.41228 | -66.18735 | 8364 ft | 14 kts | 311° |
| 2026-04-30 01:43 | -17.41166 | -66.18807 | 8364 ft | 13 kts | 313° |
| 2026-04-30 01:44 | -17.41101 | -66.18882 | 8363 ft | 15 kts | 312° |
| 2026-04-30 01:44 | -17.41022 | -66.18975 | 8362 ft | 19 kts | 311° |
| 2026-04-30 01:44 | -17.40922 | -66.19055 | 8363 ft | 16 kts | 347° |
| 2026-04-30 01:44 | -17.40915 | -66.19096 | 8363 ft | 4 kts | 173° |
| 2026-04-30 01:45 | -17.40935 | -66.19076 | 8363 ft | 4 kts | 132° |
| 2026-04-30 01:45 | -17.40944 | -66.19066 | 8363 ft | 0 kts | 131° |
| 2026-04-30 01:45 | -17.40971 | -66.19034 | 8363 ft | 29 kts | 131° |
| 2026-04-30 01:45 | -17.41257 | -66.18698 | 8364 ft | 94 kts | 132° |
| 2026-04-30 01:46 | -17.41827 | -66.18038 | 8361 ft | 149 kts | 132° |
| 2026-04-30 01:46 | -17.42614 | -66.17120 | 8515 ft | 181 kts | 131° |
| 2026-04-30 01:46 | -17.43441 | -66.16115 | 9211 ft | 186 kts | 130° |
| 2026-04-30 01:46 | -17.44339 | -66.15083 | 9818 ft | 197 kts | 132° |
| 2026-04-30 01:47 | -17.45282 | -66.14020 | 10497 ft | 201 kts | 132° |
| 2026-04-30 01:47 | -17.46266 | -66.12882 | 10845 ft | 223 kts | 133° |
| 2026-04-30 01:47 | -17.47358 | -66.11606 | 11037 ft | 247 kts | 133° |